sensor_id;sensor_type;location;lat;lon;timestamp;pressure;altitude;pressure_sealevel;temperature;humidity
19751;BME280;4663;49.120;9.730;2023-02-21T00:01:01;98532.00;;;1.59;86.56
19751;BME280;4663;49.120;9.730;2023-02-21T00:03:45;98536.06;;;1.52;86.54
19751;BME280;4663;49.120;9.730;2023-02-21T00:06:28;98537.00;;;1.40;87.26
19751;BME280;4663;49.120;9.730;2023-02-21T00:09:12;98524.19;;;1.45;86.63
19751;BME280;4663;49.120;9.730;2023-02-21T00:11:56;98535.22;;;1.76;85.41
19751;BME280;4663;49.120;9.730;2023-02-21T00:14:40;98533.41;;;1.52;86.05
19751;BME280;4663;49.120;9.730;2023-02-21T00:17:23;98534.72;;;1.22;86.72
19751;BME280;4663;49.120;9.730;2023-02-21T00:20:07;98527.69;;;1.21;87.48
19751;BME280;4663;49.120;9.730;2023-02-21T00:22:52;98519.59;;;0.98;88.32
19751;BME280;4663;49.120;9.730;2023-02-21T00:25:35;98522.59;;;1.18;87.76
19751;BME280;4663;49.120;9.730;2023-02-21T00:28:19;98523.03;;;1.36;86.59
19751;BME280;4663;49.120;9.730;2023-02-21T00:31:04;98513.97;;;1.27;85.85
19751;BME280;4663;49.120;9.730;2023-02-21T00:33:48;98516.50;;;1.04;86.91
19751;BME280;4663;49.120;9.730;2023-02-21T00:36:31;98515.25;;;0.97;87.73
19751;BME280;4663;49.120;9.730;2023-02-21T00:39:15;98515.31;;;1.08;86.67
19751;BME280;4663;49.120;9.730;2023-02-21T00:41:59;98516.94;;;0.98;86.48
19751;BME280;4663;49.120;9.730;2023-02-21T00:44:43;98516.09;;;0.60;88.48
19751;BME280;4663;49.120;9.730;2023-02-21T00:47:27;98511.66;;;0.85;87.96
19751;BME280;4663;49.120;9.730;2023-02-21T00:50:12;98515.84;;;1.00;86.64
19751;BME280;4663;49.120;9.730;2023-02-21T00:52:56;98517.53;;;0.77;87.58
19751;BME280;4663;49.120;9.730;2023-02-21T00:55:40;98519.81;;;0.57;88.16
19751;BME280;4663;49.120;9.730;2023-02-21T00:58:24;98522.34;;;0.72;88.03
19751;BME280;4663;49.120;9.730;2023-02-21T01:01:08;98514.09;;;0.64;88.01
19751;BME280;4663;49.120;9.730;2023-02-21T01:03:52;98508.59;;;0.28;88.47
19751;BME280;4663;49.120;9.730;2023-02-21T01:06:35;98512.31;;;0.38;89.28
19751;BME280;4663;49.120;9.730;2023-02-21T01:09:19;98508.97;;;0.60;88.75
19751;BME280;4663;49.120;9.730;2023-02-21T01:12:03;98503.53;;;0.12;89.63
19751;BME280;4663;49.120;9.730;2023-02-21T01:14:47;98504.66;;;0.20;89.38
19751;BME280;4663;49.120;9.730;2023-02-21T01:17:31;98512.84;;;0.30;89.28
19751;BME280;4663;49.120;9.730;2023-02-21T01:20:15;98503.09;;;0.31;89.21
19751;BME280;4663;49.120;9.730;2023-02-21T01:22:59;98507.34;;;0.20;88.97
19751;BME280;4663;49.120;9.730;2023-02-21T01:25:43;98504.34;;;0.25;89.03
19751;BME280;4663;49.120;9.730;2023-02-21T01:28:26;98503.31;;;-0.11;89.55
19751;BME280;4663;49.120;9.730;2023-02-21T01:31:18;98505.44;;;0.09;89.68
19751;BME280;4663;49.120;9.730;2023-02-21T01:34:03;98503.91;;;0.31;88.57
19751;BME280;4663;49.120;9.730;2023-02-21T01:36:47;98507.34;;;0.20;88.56
19751;BME280;4663;49.120;9.730;2023-02-21T01:39:30;98505.22;;;0.13;88.72
19751;BME280;4663;49.120;9.730;2023-02-21T01:42:16;98493.63;;;0.01;88.95
19751;BME280;4663;49.120;9.730;2023-02-21T01:48:04;98494.16;;;0.19;88.67
19751;BME280;4663;49.120;9.730;2023-02-21T01:50:51;98481.44;;;-0.02;88.47
19751;BME280;4663;49.120;9.730;2023-02-21T01:53:36;98486.97;;;-0.18;89.36
19751;BME280;4663;49.120;9.730;2023-02-21T01:56:20;98490.88;;;0.02;88.64
19751;BME280;4663;49.120;9.730;2023-02-21T01:59:04;98495.56;;;-0.14;87.95
19751;BME280;4663;49.120;9.730;2023-02-21T02:01:53;98493.09;;;-0.18;89.03
19751;BME280;4663;49.120;9.730;2023-02-21T02:04:41;98485.88;;;-0.42;89.17
19751;BME280;4663;49.120;9.730;2023-02-21T02:07:25;98487.28;;;-0.23;89.22
19751;BME280;4663;49.120;9.730;2023-02-21T02:10:09;98488.00;;;-0.21;88.88
19751;BME280;4663;49.120;9.730;2023-02-21T02:21:01;98491.78;;;-0.64;90.20
19751;BME280;4663;49.120;9.730;2023-02-21T02:39:50;98485.47;;;-0.35;89.55
19751;BME280;4663;49.120;9.730;2023-02-21T02:42:30;98484.56;;;-0.49;89.16
19751;BME280;4663;49.120;9.730;2023-02-21T02:45:03;98488.00;;;-0.47;88.38
19751;BME280;4663;49.120;9.730;2023-02-21T02:47:35;98492.00;;;-0.54;88.85
19751;BME280;4663;49.120;9.730;2023-02-21T02:50:04;98478.09;;;-0.58;89.30
19751;BME280;4663;49.120;9.730;2023-02-21T02:52:30;98479.22;;;-0.75;89.59
19751;BME280;4663;49.120;9.730;2023-02-21T02:55:00;98472.22;;;-0.76;90.42
19751;BME280;4663;49.120;9.730;2023-02-21T02:57:28;98479.03;;;-0.59;89.71
19751;BME280;4663;49.120;9.730;2023-02-21T03:00:04;98484.72;;;-0.78;89.86
19751;BME280;4663;49.120;9.730;2023-02-21T03:11:13;98468.63;;;-0.75;89.43
19751;BME280;4663;49.120;9.730;2023-02-21T03:13:46;98474.66;;;-0.73;89.94
19751;BME280;4663;49.120;9.730;2023-02-21T03:18:45;98476.84;;;-0.52;88.78
19751;BME280;4663;49.120;9.730;2023-02-21T03:21:20;98475.34;;;-0.56;87.64
19751;BME280;4663;49.120;9.730;2023-02-21T03:23:50;98467.38;;;-0.69;86.89
19751;BME280;4663;49.120;9.730;2023-02-21T03:26:17;98473.50;;;-0.69;86.79
19751;BME280;4663;49.120;9.730;2023-02-21T03:28:43;98470.72;;;-0.80;87.12
19751;BME280;4663;49.120;9.730;2023-02-21T03:31:11;98482.09;;;-1.05;87.70
19751;BME280;4663;49.120;9.730;2023-02-21T03:33:38;98478.22;;;-1.14;89.25
19751;BME280;4663;49.120;9.730;2023-02-21T03:36:05;98470.41;;;-1.30;89.23
19751;BME280;4663;49.120;9.730;2023-02-21T03:38:31;98478.78;;;-1.24;89.87
19751;BME280;4663;49.120;9.730;2023-02-21T03:40:57;98479.81;;;-1.39;89.37
19751;BME280;4663;49.120;9.730;2023-02-21T03:43:22;98481.88;;;-1.45;89.25
19751;BME280;4663;49.120;9.730;2023-02-21T03:45:48;98485.91;;;-1.66;91.15
19751;BME280;4663;49.120;9.730;2023-02-21T03:48:13;98486.13;;;-1.42;90.43
19751;BME280;4663;49.120;9.730;2023-02-21T03:50:39;98474.69;;;-1.42;89.45
19751;BME280;4663;49.120;9.730;2023-02-21T03:53:04;98473.00;;;-1.43;89.92
19751;BME280;4663;49.120;9.730;2023-02-21T03:55:30;98470.28;;;-1.56;90.16
19751;BME280;4663;49.120;9.730;2023-02-21T03:57:55;98467.47;;;-1.26;89.76
19751;BME280;4663;49.120;9.730;2023-02-21T04:00:21;98466.16;;;-1.33;89.12
19751;BME280;4663;49.120;9.730;2023-02-21T04:02:46;98466.66;;;-1.41;89.85
19751;BME280;4663;49.120;9.730;2023-02-21T04:05:11;98464.22;;;-1.59;89.35
19751;BME280;4663;49.120;9.730;2023-02-21T04:07:37;98465.69;;;-1.40;89.18
19751;BME280;4663;49.120;9.730;2023-02-21T04:10:02;98468.56;;;-1.58;89.33
19751;BME280;4663;49.120;9.730;2023-02-21T04:12:28;98459.22;;;-1.63;89.63
19751;BME280;4663;49.120;9.730;2023-02-21T04:14:53;98466.03;;;-1.88;90.24
19751;BME280;4663;49.120;9.730;2023-02-21T04:17:21;98475.59;;;-1.86;90.57
19751;BME280;4663;49.120;9.730;2023-02-21T04:19:46;98473.03;;;-1.73;89.94
19751;BME280;4663;49.120;9.730;2023-02-21T04:22:11;98470.53;;;-1.47;89.39
19751;BME280;4663;49.120;9.730;2023-02-21T04:24:37;98467.50;;;-1.40;88.81
19751;BME280;4663;49.120;9.730;2023-02-21T04:27:02;98466.41;;;-1.51;88.36
19751;BME280;4663;49.120;9.730;2023-02-21T04:29:28;98479.84;;;-1.98;90.06
19751;BME280;4663;49.120;9.730;2023-02-21T04:31:53;98480.59;;;-1.95;90.03
19751;BME280;4663;49.120;9.730;2023-02-21T04:34:19;98480.22;;;-2.04;90.45
19751;BME280;4663;49.120;9.730;2023-02-21T04:36:45;98475.31;;;-1.81;90.13
19751;BME280;4663;49.120;9.730;2023-02-21T04:39:10;98474.44;;;-1.52;89.25
19751;BME280;4663;49.120;9.730;2023-02-21T04:41:36;98476.75;;;-2.04;89.83
19751;BME280;4663;49.120;9.730;2023-02-21T04:44:02;98472.94;;;-2.15;90.86
19751;BME280;4663;49.120;9.730;2023-02-21T04:46:27;98464.84;;;-1.97;90.40
19751;BME280;4663;49.120;9.730;2023-02-21T04:48:52;98469.28;;;-1.98;90.60
19751;BME280;4663;49.120;9.730;2023-02-21T04:51:21;98452.72;;;-1.87;89.38
19751;BME280;4663;49.120;9.730;2023-02-21T04:53:48;98459.25;;;-2.07;90.14
19751;BME280;4663;49.120;9.730;2023-02-21T04:56:17;98465.28;;;-2.05;90.64
19751;BME280;4663;49.120;9.730;2023-02-21T04:58:42;98463.22;;;-2.00;90.27
19751;BME280;4663;49.120;9.730;2023-02-21T05:01:10;98465.31;;;-1.90;90.20
19751;BME280;4663;49.120;9.730;2023-02-21T05:03:36;98460.56;;;-1.85;88.98
19751;BME280;4663;49.120;9.730;2023-02-21T05:06:01;98467.75;;;-2.16;90.38
19751;BME280;4663;49.120;9.730;2023-02-21T05:08:27;98468.56;;;-2.30;90.93
19751;BME280;4663;49.120;9.730;2023-02-21T05:10:52;98472.88;;;-1.99;90.60
19751;BME280;4663;49.120;9.730;2023-02-21T05:13:19;98470.00;;;-1.95;90.32
19751;BME280;4663;49.120;9.730;2023-02-21T05:15:44;98464.25;;;-2.02;90.10
19751;BME280;4663;49.120;9.730;2023-02-21T05:18:10;98467.56;;;-1.99;90.06
19751;BME280;4663;49.120;9.730;2023-02-21T05:20:35;98468.50;;;-2.14;89.89
19751;BME280;4663;49.120;9.730;2023-02-21T05:23:01;98477.00;;;-2.24;89.90
19751;BME280;4663;49.120;9.730;2023-02-21T05:25:26;98477.34;;;-2.44;91.14
19751;BME280;4663;49.120;9.730;2023-02-21T05:27:52;98476.59;;;-2.32;90.25
19751;BME280;4663;49.120;9.730;2023-02-21T05:30:20;98479.84;;;-2.27;90.61
19751;BME280;4663;49.120;9.730;2023-02-21T05:32:47;98481.44;;;-2.10;90.16
19751;BME280;4663;49.120;9.730;2023-02-21T05:35:14;98481.34;;;-2.37;89.65
19751;BME280;4663;49.120;9.730;2023-02-21T05:37:40;98471.66;;;-2.53;90.51
19751;BME280;4663;49.120;9.730;2023-02-21T05:40:05;98486.31;;;-2.47;91.03
19751;BME280;4663;49.120;9.730;2023-02-21T05:42:32;98488.78;;;-2.44;90.58
19751;BME280;4663;49.120;9.730;2023-02-21T05:44:57;98473.47;;;-2.39;90.73
19751;BME280;4663;49.120;9.730;2023-02-21T05:47:23;98475.81;;;-2.49;90.64
19751;BME280;4663;49.120;9.730;2023-02-21T05:49:48;98482.19;;;-2.37;90.55
19751;BME280;4663;49.120;9.730;2023-02-21T05:52:16;98471.97;;;-2.43;90.41
19751;BME280;4663;49.120;9.730;2023-02-21T05:54:42;98483.59;;;-2.45;90.73
19751;BME280;4663;49.120;9.730;2023-02-21T05:57:07;98475.25;;;-2.39;89.95
19751;BME280;4663;49.120;9.730;2023-02-21T05:59:33;98478.28;;;-2.45;90.51
19751;BME280;4663;49.120;9.730;2023-02-21T06:01:58;98476.38;;;-2.43;91.00
19751;BME280;4663;49.120;9.730;2023-02-21T06:04:23;98471.66;;;-2.53;90.64
19751;BME280;4663;49.120;9.730;2023-02-21T06:06:49;98472.44;;;-2.51;90.37
19751;BME280;4663;49.120;9.730;2023-02-21T06:09:16;98471.22;;;-2.45;90.08
19751;BME280;4663;49.120;9.730;2023-02-21T06:11:42;98470.91;;;-2.55;90.86
19751;BME280;4663;49.120;9.730;2023-02-21T06:14:13;98468.38;;;-2.56;90.39
19751;BME280;4663;49.120;9.730;2023-02-21T06:16:39;98469.84;;;-2.67;91.33
19751;BME280;4663;49.120;9.730;2023-02-21T06:19:05;98475.16;;;-2.52;91.37
19751;BME280;4663;49.120;9.730;2023-02-21T06:21:31;98474.78;;;-2.60;91.32
19751;BME280;4663;49.120;9.730;2023-02-21T06:23:58;98470.72;;;-2.52;90.35
19751;BME280;4663;49.120;9.730;2023-02-21T06:26:23;98473.66;;;-2.56;90.41
19751;BME280;4663;49.120;9.730;2023-02-21T06:28:49;98470.09;;;-2.41;90.02
19751;BME280;4663;49.120;9.730;2023-02-21T06:31:16;98472.47;;;-2.21;89.53
19751;BME280;4663;49.120;9.730;2023-02-21T06:33:42;98483.19;;;-2.54;89.54
19751;BME280;4663;49.120;9.730;2023-02-21T06:36:12;98469.19;;;-2.70;90.62
19751;BME280;4663;49.120;9.730;2023-02-21T06:38:37;98475.38;;;-2.71;91.25
19751;BME280;4663;49.120;9.730;2023-02-21T06:41:09;98470.16;;;-2.57;90.88
19751;BME280;4663;49.120;9.730;2023-02-21T06:43:34;98469.03;;;-2.53;90.60
19751;BME280;4663;49.120;9.730;2023-02-21T06:46:03;98470.75;;;-2.37;89.95
19751;BME280;4663;49.120;9.730;2023-02-21T06:48:29;98474.78;;;-2.46;90.39
19751;BME280;4663;49.120;9.730;2023-02-21T06:50:54;98477.94;;;-2.25;89.98
19751;BME280;4663;49.120;9.730;2023-02-21T06:53:20;98481.16;;;-2.34;89.35
19751;BME280;4663;49.120;9.730;2023-02-21T06:55:45;98478.69;;;-2.37;89.30
19751;BME280;4663;49.120;9.730;2023-02-21T06:58:10;98488.19;;;-2.49;90.56
19751;BME280;4663;49.120;9.730;2023-02-21T07:00:36;98489.75;;;-2.30;91.01
19751;BME280;4663;49.120;9.730;2023-02-21T07:03:01;98482.13;;;-2.06;89.30
19751;BME280;4663;49.120;9.730;2023-02-21T07:05:27;98478.22;;;-1.86;88.65
19751;BME280;4663;49.120;9.730;2023-02-21T07:07:53;98473.03;;;-1.73;88.26
19751;BME280;4663;49.120;9.730;2023-02-21T07:10:18;98471.31;;;-1.59;88.59
19751;BME280;4663;49.120;9.730;2023-02-21T07:12:44;98473.38;;;-1.50;88.22
19751;BME280;4663;49.120;9.730;2023-02-21T07:15:09;98477.28;;;-1.55;88.56
19751;BME280;4663;49.120;9.730;2023-02-21T07:17:35;98470.38;;;-1.58;88.32
19751;BME280;4663;49.120;9.730;2023-02-21T07:20:00;98477.09;;;-1.25;87.82
19751;BME280;4663;49.120;9.730;2023-02-21T07:22:25;98479.97;;;-1.00;87.58
19751;BME280;4663;49.120;9.730;2023-02-21T07:24:55;98472.50;;;-0.94;87.09
19751;BME280;4663;49.120;9.730;2023-02-21T07:27:21;98469.69;;;-0.77;86.83
19751;BME280;4663;49.120;9.730;2023-02-21T07:29:47;98484.34;;;-0.72;86.69
19751;BME280;4663;49.120;9.730;2023-02-21T07:32:14;98477.94;;;-0.82;86.74
19751;BME280;4663;49.120;9.730;2023-02-21T07:34:40;98477.16;;;-0.57;86.59
19751;BME280;4663;49.120;9.730;2023-02-21T07:37:05;98481.19;;;-0.51;85.78
19751;BME280;4663;49.120;9.730;2023-02-21T07:39:31;98479.91;;;-0.58;86.05
19751;BME280;4663;49.120;9.730;2023-02-21T07:41:56;98488.00;;;-0.47;85.57
19751;BME280;4663;49.120;9.730;2023-02-21T07:44:22;98487.38;;;-0.24;85.97
19751;BME280;4663;49.120;9.730;2023-02-21T07:46:47;98494.19;;;-0.07;85.51
19751;BME280;4663;49.120;9.730;2023-02-21T07:49:12;98488.13;;;0.04;85.33
19751;BME280;4663;49.120;9.730;2023-02-21T07:51:38;98495.44;;;0.26;84.90
19751;BME280;4663;49.120;9.730;2023-02-21T07:54:03;98485.84;;;0.37;84.31
19751;BME280;4663;49.120;9.730;2023-02-21T07:56:29;98495.59;;;0.49;83.93
19751;BME280;4663;49.120;9.730;2023-02-21T07:58:54;98489.19;;;0.65;83.53
19751;BME280;4663;49.120;9.730;2023-02-21T08:01:26;98492.59;;;0.91;83.64
19751;BME280;4663;49.120;9.730;2023-02-21T08:03:51;98492.63;;;1.16;82.43
19751;BME280;4663;49.120;9.730;2023-02-21T08:06:17;98497.19;;;1.13;81.71
19751;BME280;4663;49.120;9.730;2023-02-21T08:08:44;98497.22;;;1.49;81.69
19751;BME280;4663;49.120;9.730;2023-02-21T08:11:09;98492.38;;;1.79;81.32
19751;BME280;4663;49.120;9.730;2023-02-21T08:13:34;98489.81;;;1.66;80.83
19751;BME280;4663;49.120;9.730;2023-02-21T08:16:00;98487.06;;;2.13;79.75
19751;BME280;4663;49.120;9.730;2023-02-21T08:18:25;98479.09;;;2.48;78.17
19751;BME280;4663;49.120;9.730;2023-02-21T08:20:52;98490.38;;;2.28;77.69
19751;BME280;4663;49.120;9.730;2023-02-21T08:23:18;98478.69;;;2.64;78.96
19751;BME280;4663;49.120;9.730;2023-02-21T08:25:45;98479.94;;;3.04;78.00
19751;BME280;4663;49.120;9.730;2023-02-21T08:28:11;98485.13;;;3.71;77.90
19751;BME280;4663;49.120;9.730;2023-02-21T08:30:36;98479.63;;;3.94;76.03
19751;BME280;4663;49.120;9.730;2023-02-21T08:33:02;98479.91;;;4.22;76.52
19751;BME280;4663;49.120;9.730;2023-02-21T08:35:27;98472.88;;;4.52;75.32
19751;BME280;4663;49.120;9.730;2023-02-21T08:37:52;98480.41;;;4.98;75.70
19751;BME280;4663;49.120;9.730;2023-02-21T08:40:22;98474.25;;;4.46;72.29
19751;BME280;4663;49.120;9.730;2023-02-21T08:42:49;98468.84;;;4.68;72.74
19751;BME280;4663;49.120;9.730;2023-02-21T08:45:17;98479.59;;;4.97;74.63
19751;BME280;4663;49.120;9.730;2023-02-21T08:47:43;98470.66;;;4.67;72.53
19751;BME280;4663;49.120;9.730;2023-02-21T08:50:09;98459.16;;;4.96;70.09
19751;BME280;4663;49.120;9.730;2023-02-21T08:52:34;98480.88;;;5.03;72.61
19751;BME280;4663;49.120;9.730;2023-02-21T08:55:00;98462.03;;;5.15;70.64
19751;BME280;4663;49.120;9.730;2023-02-21T08:57:25;98475.41;;;5.54;70.32
19751;BME280;4663;49.120;9.730;2023-02-21T08:59:50;98471.16;;;5.71;69.72
19751;BME280;4663;49.120;9.730;2023-02-21T09:02:24;98483.88;;;5.59;70.68
19751;BME280;4663;49.120;9.730;2023-02-21T09:04:51;98485.34;;;6.49;70.21
19751;BME280;4663;49.120;9.730;2023-02-21T09:07:18;98463.41;;;6.82;68.00
19751;BME280;4663;49.120;9.730;2023-02-21T09:09:44;98466.44;;;7.34;67.98
19751;BME280;4663;49.120;9.730;2023-02-21T09:12:10;98460.03;;;7.71;67.62
19751;BME280;4663;49.120;9.730;2023-02-21T09:14:40;98478.97;;;8.14;67.07
19751;BME280;4663;49.120;9.730;2023-02-21T09:17:09;98476.69;;;8.28;67.25
19751;BME280;4663;49.120;9.730;2023-02-21T09:19:35;98468.25;;;8.23;66.52
19751;BME280;4663;49.120;9.730;2023-02-21T09:22:01;98451.97;;;8.24;65.03
19751;BME280;4663;49.120;9.730;2023-02-21T09:24:29;98480.97;;;8.12;66.81
19751;BME280;4663;49.120;9.730;2023-02-21T09:26:55;98455.28;;;8.18;64.70
19751;BME280;4663;49.120;9.730;2023-02-21T09:29:28;98455.06;;;8.46;65.13
19751;BME280;4663;49.120;9.730;2023-02-21T09:31:53;98446.66;;;8.41;62.98
19751;BME280;4663;49.120;9.730;2023-02-21T09:34:19;98461.16;;;8.13;64.02
19751;BME280;4663;49.120;9.730;2023-02-21T09:36:44;98461.69;;;8.60;64.15
19751;BME280;4663;49.120;9.730;2023-02-21T09:39:12;98478.34;;;9.15;65.66
19751;BME280;4663;49.120;9.730;2023-02-21T09:41:38;98462.56;;;9.70;64.66
19751;BME280;4663;49.120;9.730;2023-02-21T09:44:05;98461.69;;;9.03;63.68
19751;BME280;4663;49.120;9.730;2023-02-21T09:46:41;98452.97;;;9.51;62.02
19751;BME280;4663;49.120;9.730;2023-02-21T09:49:23;98480.44;;;9.80;64.37
19751;BME280;4663;49.120;9.730;2023-02-21T09:51:50;98446.88;;;9.91;61.67
19751;BME280;4663;49.120;9.730;2023-02-21T09:54:32;98440.50;;;9.67;61.07
19751;BME280;4663;49.120;9.730;2023-02-21T09:57:00;98440.84;;;9.39;60.77
19751;BME280;4663;49.120;9.730;2023-02-21T09:59:27;98446.91;;;9.74;61.17
19751;BME280;4663;49.120;9.730;2023-02-21T10:04:28;98451.59;;;9.80;61.17
19751;BME280;4663;49.120;9.730;2023-02-21T10:07:01;98478.72;;;9.87;63.57
19751;BME280;4663;49.120;9.730;2023-02-21T10:12:09;98453.44;;;9.96;61.24
19751;BME280;4663;49.120;9.730;2023-02-21T10:17:21;98458.75;;;11.33;62.13
19751;BME280;4663;49.120;9.730;2023-02-21T10:19:54;98450.44;;;10.48;61.05
19751;BME280;4663;49.120;9.730;2023-02-21T10:22:27;98421.69;;;11.19;58.37
19751;BME280;4663;49.120;9.730;2023-02-21T10:24:55;98458.19;;;10.51;60.30
19751;BME280;4663;49.120;9.730;2023-02-21T10:27:23;98457.00;;;11.40;61.80
19751;BME280;4663;49.120;9.730;2023-02-21T10:30:05;98447.84;;;10.95;60.66
19751;BME280;4663;49.120;9.730;2023-02-21T10:32:35;98443.53;;;10.45;59.85
19751;BME280;4663;49.120;9.730;2023-02-21T10:35:01;98432.16;;;11.22;58.47
19751;BME280;4663;49.120;9.730;2023-02-21T10:40:04;98443.53;;;10.45;59.87
19751;BME280;4663;49.120;9.730;2023-02-21T10:42:42;98434.09;;;10.73;59.46
19751;BME280;4663;49.120;9.730;2023-02-21T10:45:11;98467.91;;;11.71;62.17
19751;BME280;4663;49.120;9.730;2023-02-21T10:50:38;98456.69;;;12.57;60.26
19751;BME280;4663;49.120;9.730;2023-02-21T10:53:05;98449.19;;;12.90;59.75
19751;BME280;4663;49.120;9.730;2023-02-21T10:55:31;98412.13;;;12.23;56.39
19751;BME280;4663;49.120;9.730;2023-02-21T10:57:57;98426.66;;;12.37;57.09
19751;BME280;4663;49.120;9.730;2023-02-21T11:00:33;98460.56;;;12.33;60.77
19751;BME280;4663;49.120;9.730;2023-02-21T11:03:21;98418.94;;;12.19;57.91
19751;BME280;4663;49.120;9.730;2023-02-21T11:05:52;98444.66;;;12.97;58.62
19751;BME280;4663;49.120;9.730;2023-02-21T11:11:02;98407.75;;;12.59;56.76
19751;BME280;4663;49.120;9.730;2023-02-21T11:13:29;98433.53;;;13.07;58.98
19751;BME280;4663;49.120;9.730;2023-02-21T11:16:20;98413.41;;;13.38;57.24
19751;BME280;4663;49.120;9.730;2023-02-21T11:19:04;98389.22;;;12.78;56.28
19751;BME280;4663;49.120;9.730;2023-02-21T11:21:29;98409.72;;;13.24;58.08
19751;BME280;4663;49.120;9.730;2023-02-21T11:23:58;98417.00;;;13.67;58.41
19751;BME280;4663;49.120;9.730;2023-02-21T11:26:28;98415.06;;;13.61;59.20
19751;BME280;4663;49.120;9.730;2023-02-21T11:29:07;98404.09;;;13.76;58.30
19751;BME280;4663;49.120;9.730;2023-02-21T11:31:34;98388.88;;;14.04;57.95
19751;BME280;4663;49.120;9.730;2023-02-21T11:34:02;98376.47;;;13.94;56.59
19751;BME280;4663;49.120;9.730;2023-02-21T11:36:36;98370.16;;;13.30;57.00
19751;BME280;4663;49.120;9.730;2023-02-21T11:39:51;98348.13;;;13.68;55.12
19751;BME280;4663;49.120;9.730;2023-02-21T11:42:30;98362.44;;;13.55;57.66
19751;BME280;4663;49.120;9.730;2023-02-21T11:47:45;98325.78;;;13.09;55.20
19751;BME280;4663;49.120;9.730;2023-02-21T11:55:38;98343.34;;;12.17;58.52
19751;BME280;4663;49.120;9.730;2023-02-21T12:01:02;98340.66;;;12.54;59.39
19751;BME280;4663;49.120;9.730;2023-02-21T12:03:43;98321.91;;;12.53;56.96
19751;BME280;4663;49.120;9.730;2023-02-21T12:06:44;98310.56;;;12.64;57.58
19751;BME280;4663;49.120;9.730;2023-02-21T12:09:27;98324.22;;;12.56;58.62
19751;BME280;4663;49.120;9.730;2023-02-21T12:14:45;98294.16;;;11.99;57.53
19751;BME280;4663;49.120;9.730;2023-02-21T12:22:38;98296.06;;;12.13;58.26
19751;BME280;4663;49.120;9.730;2023-02-21T12:30:53;98292.06;;;12.31;59.46
19751;BME280;4663;49.120;9.730;2023-02-21T12:41:40;98256.63;;;12.26;58.24
19751;BME280;4663;49.120;9.730;2023-02-21T12:44:18;98249.16;;;12.28;58.19
19751;BME280;4663;49.120;9.730;2023-02-21T12:46:50;98245.56;;;12.42;58.95
19751;BME280;4663;49.120;9.730;2023-02-21T12:52:20;98254.41;;;12.51;60.45
19751;BME280;4663;49.120;9.730;2023-02-21T12:57:48;98231.56;;;12.02;59.30
19751;BME280;4663;49.120;9.730;2023-02-21T13:00:22;98226.75;;;11.82;59.78
19751;BME280;4663;49.120;9.730;2023-02-21T13:02:54;98239.81;;;11.93;60.43
19751;BME280;4663;49.120;9.730;2023-02-21T13:05:35;98228.72;;;11.73;61.07
19751;BME280;4663;49.120;9.730;2023-02-21T13:08:28;98208.19;;;11.79;59.20
19751;BME280;4663;49.120;9.730;2023-02-21T13:13:43;98191.09;;;11.93;58.74
19751;BME280;4663;49.120;9.730;2023-02-21T13:16:10;98191.00;;;12.02;59.45
19751;BME280;4663;49.120;9.730;2023-02-21T13:18:48;98177.22;;;11.81;58.94
19751;BME280;4663;49.120;9.730;2023-02-21T13:21:24;98179.50;;;11.78;58.23
19751;BME280;4663;49.120;9.730;2023-02-21T13:26:57;98181.66;;;11.67;59.97
19751;BME280;4663;49.120;9.730;2023-02-21T13:29:30;98180.66;;;11.53;60.06
19751;BME280;4663;49.120;9.730;2023-02-21T13:32:00;98162.75;;;11.52;59.51
19751;BME280;4663;49.120;9.730;2023-02-21T13:34:35;98158.28;;;11.60;58.71
19751;BME280;4663;49.120;9.730;2023-02-21T13:37:05;98153.34;;;11.48;58.85
19751;BME280;4663;49.120;9.730;2023-02-21T13:39:32;98133.06;;;11.37;57.21
19751;BME280;4663;49.120;9.730;2023-02-21T13:42:08;98152.25;;;11.42;58.48
19751;BME280;4663;49.120;9.730;2023-02-21T13:44:38;98150.00;;;11.31;59.68
19751;BME280;4663;49.120;9.730;2023-02-21T13:47:16;98143.78;;;11.15;59.32
19751;BME280;4663;49.120;9.730;2023-02-21T13:49:55;98163.53;;;11.16;61.01
19751;BME280;4663;49.120;9.730;2023-02-21T14:03:01;98127.91;;;10.67;61.11
19751;BME280;4663;49.120;9.730;2023-02-21T14:11:20;98100.50;;;10.40;60.50
19751;BME280;4663;49.120;9.730;2023-02-21T14:16:18;98107.97;;;10.68;60.89
19751;BME280;4663;49.120;9.730;2023-02-21T14:23:58;98100.34;;;10.18;61.69
19751;BME280;4663;49.120;9.730;2023-02-21T14:34:39;98099.44;;;9.79;63.44
19751;BME280;4663;49.120;9.730;2023-02-21T14:39:59;98093.81;;;9.57;63.47
19751;BME280;4663;49.120;9.730;2023-02-21T14:50:58;98100.66;;;9.45;64.45
19751;BME280;4663;49.120;9.730;2023-02-21T14:55:43;98098.72;;;9.30;65.37
19751;BME280;4663;49.120;9.730;2023-02-21T15:03:45;98087.03;;;9.38;65.39
19751;BME280;4663;49.120;9.730;2023-02-21T15:06:18;98078.09;;;9.38;65.90
19751;BME280;4663;49.120;9.730;2023-02-21T15:08:51;98083.94;;;9.26;66.65
19751;BME280;4663;49.120;9.730;2023-02-21T15:11:25;98069.56;;;9.34;64.74
19751;BME280;4663;49.120;9.730;2023-02-21T15:14:15;98065.50;;;9.38;64.61
19751;BME280;4663;49.120;9.730;2023-02-21T15:16:52;98074.88;;;9.19;66.25
19751;BME280;4663;49.120;9.730;2023-02-21T15:21:46;98057.69;;;9.20;64.53
19751;BME280;4663;49.120;9.730;2023-02-21T15:24:14;98057.00;;;9.18;64.47
19751;BME280;4663;49.120;9.730;2023-02-21T15:26:40;98064.63;;;9.38;64.57
19751;BME280;4663;49.120;9.730;2023-02-21T15:29:11;98075.03;;;9.17;67.04
19751;BME280;4663;49.120;9.730;2023-02-21T15:34:20;98059.50;;;8.79;66.55
19751;BME280;4663;49.120;9.730;2023-02-21T15:36:48;98062.81;;;8.90;67.75
19751;BME280;4663;49.120;9.730;2023-02-21T15:39:30;98053.94;;;8.81;66.38
19751;BME280;4663;49.120;9.730;2023-02-21T15:41:57;98051.09;;;8.82;65.75
19751;BME280;4663;49.120;9.730;2023-02-21T15:44:30;98053.78;;;8.74;66.21
19751;BME280;4663;49.120;9.730;2023-02-21T15:49:41;98063.06;;;8.63;67.23
19751;BME280;4663;49.120;9.730;2023-02-21T15:52:28;98054.78;;;8.98;65.61
19751;BME280;4663;49.120;9.730;2023-02-21T15:58:02;98074.88;;;8.54;70.48
19751;BME280;4663;49.120;9.730;2023-02-21T16:08:39;98066.88;;;8.20;72.17
19751;BME280;4663;49.120;9.730;2023-02-21T16:11:14;98057.97;;;8.03;72.15
19751;BME280;4663;49.120;9.730;2023-02-21T16:13:40;98066.69;;;8.14;72.64
19751;BME280;4663;49.120;9.730;2023-02-21T16:16:07;98057.63;;;7.90;72.94
19751;BME280;4663;49.120;9.730;2023-02-21T16:18:32;98060.97;;;7.67;74.11
19751;BME280;4663;49.120;9.730;2023-02-21T16:21:00;98055.38;;;7.43;74.26
19751;BME280;4663;49.120;9.730;2023-02-21T16:23:38;98057.72;;;7.38;74.95
19751;BME280;4663;49.120;9.730;2023-02-21T16:28:34;98052.78;;;7.17;75.48